createdAt,value
2019-06-08T00:01:55.920Z,7.60
2019-06-08T00:04:26.411Z,7.70
2019-06-08T00:06:57.017Z,7.60
2019-06-08T00:09:27.505Z,7.67
2019-06-08T00:11:57.953Z,7.67
2019-06-08T00:14:28.444Z,7.97
2019-06-08T00:16:58.949Z,7.43
2019-06-08T00:19:29.453Z,7.37
2019-06-08T00:21:59.942Z,7.67
2019-06-08T00:24:30.397Z,6.97
2019-06-08T00:27:00.877Z,7.50
2019-06-08T00:29:31.333Z,7.30
2019-06-08T00:32:01.874Z,8.30
2019-06-08T00:34:32.421Z,7.00
2019-06-08T00:37:02.916Z,6.70
2019-06-08T00:39:33.437Z,6.90
2019-06-08T00:42:04.005Z,7.13
2019-06-08T00:44:34.479Z,6.33
2019-06-08T00:47:04.969Z,6.87
2019-06-08T00:49:35.453Z,6.80
2019-06-08T00:52:05.912Z,7.27
2019-06-08T00:54:36.523Z,6.87
2019-06-08T00:57:07.083Z,6.57
2019-06-08T00:59:37.590Z,7.03
2019-06-08T01:02:08.047Z,7.30
2019-06-08T01:04:38.528Z,6.87
2019-06-08T01:07:09.041Z,6.43
2019-06-08T01:09:39.628Z,6.60
2019-06-08T01:12:10.216Z,6.77
2019-06-08T01:14:40.809Z,6.70
2019-06-08T01:17:11.384Z,6.77
2019-06-08T01:19:42.076Z,7.47
2019-06-08T01:22:12.532Z,7.60
2019-06-08T01:24:43.208Z,6.87
2019-06-08T01:27:13.658Z,7.37
2019-06-08T01:29:44.141Z,7.47
2019-06-08T01:32:14.699Z,7.50
2019-06-08T01:34:45.187Z,7.10
2019-06-08T01:37:15.641Z,7.00
2019-06-08T01:39:46.155Z,7.03
2019-06-08T01:42:16.615Z,7.20
2019-06-08T01:44:47.169Z,7.60
2019-06-08T01:47:17.586Z,7.50
2019-06-08T01:49:48.086Z,7.50
2019-06-08T01:52:20.216Z,7.77
2019-06-08T01:54:50.715Z,7.40
2019-06-08T01:57:21.197Z,7.63
2019-06-08T01:59:51.661Z,7.20
2019-06-08T02:02:22.120Z,7.87
2019-06-08T02:04:52.617Z,7.53
2019-06-08T02:07:24.194Z,7.80
2019-06-08T02:09:54.760Z,7.53
2019-06-08T02:12:26.657Z,8.03
2019-06-08T02:14:57.239Z,7.50
2019-06-08T02:17:27.695Z,7.70
2019-06-08T02:19:58.192Z,8.27
2019-06-08T02:22:28.846Z,7.83
2019-06-08T02:24:59.324Z,7.43
2019-06-08T02:27:29.886Z,7.87
2019-06-08T02:30:00.398Z,7.70
2019-06-08T02:32:32.667Z,8.00
2019-06-08T02:35:03.038Z,8.60
2019-06-08T02:37:35.280Z,8.63
2019-06-08T02:40:06.227Z,8.53
2019-06-08T02:42:37.250Z,8.10
2019-06-08T02:45:08.551Z,8.77
2019-06-08T02:47:41.197Z,8.10
2019-06-08T02:50:11.637Z,7.93
2019-06-08T02:52:44.443Z,8.60
2019-06-08T02:55:14.945Z,8.57
2019-06-08T02:57:46.217Z,8.47
2019-06-08T03:00:16.779Z,8.90
2019-06-08T03:02:50.485Z,8.40
2019-06-08T03:05:21.146Z,8.93
2019-06-08T03:07:53.643Z,8.80
2019-06-08T03:10:24.143Z,9.03
2019-06-08T03:12:56.510Z,8.33
2019-06-08T03:15:32.410Z,8.37
2019-06-08T03:18:03.342Z,8.23
2019-06-08T03:20:35.612Z,7.80
2019-06-08T03:23:06.385Z,8.47
2019-06-08T03:25:47.407Z,8.10
2019-06-08T03:28:09.059Z,8.17
2019-06-08T03:30:47.391Z,8.83
2019-06-08T03:33:11.922Z,8.80
2019-06-08T03:35:54.934Z,8.23
2019-06-08T03:38:14.570Z,8.50
2019-06-08T03:40:45.310Z,8.83
2019-06-08T03:43:15.906Z,8.07
2019-06-08T03:45:46.344Z,8.57
2019-06-08T03:48:16.829Z,8.30
2019-06-08T03:50:47.294Z,8.47
2019-06-08T03:53:17.820Z,8.57
2019-06-08T03:55:48.288Z,9.50
2019-06-08T03:58:18.758Z,8.87
2019-06-08T04:00:49.329Z,7.83
2019-06-08T04:03:19.842Z,8.07
2019-06-08T04:05:50.297Z,8.10
2019-06-08T04:08:20.779Z,7.70
2019-06-08T04:10:51.249Z,8.50
2019-06-08T04:13:21.783Z,8.10
2019-06-08T04:15:52.247Z,8.33
2019-06-08T04:18:22.737Z,9.17
2019-06-08T04:20:53.348Z,9.47
2019-06-08T04:23:23.851Z,9.23
2019-06-08T04:25:54.325Z,9.33
2019-06-08T04:28:24.826Z,9.30
2019-06-08T04:30:55.325Z,9.00
2019-06-08T04:33:25.791Z,9.80
2019-06-08T04:35:56.242Z,8.47
2019-06-08T04:38:26.775Z,9.23
2019-06-08T04:40:57.240Z,8.70
2019-06-08T04:43:27.763Z,8.97
2019-06-08T04:45:58.218Z,8.53
2019-06-08T04:48:28.718Z,8.47
2019-06-08T04:50:59.222Z,9.37
2019-06-08T04:53:29.695Z,8.60
2019-06-08T04:56:00.191Z,9.40
2019-06-08T04:58:30.786Z,7.97
2019-06-08T05:01:01.325Z,7.53
2019-06-08T05:03:31.824Z,8.07
2019-06-08T05:06:02.292Z,7.97
2019-06-08T05:08:32.809Z,7.27
2019-06-08T05:11:03.282Z,8.27
2019-06-08T05:13:33.760Z,8.00
2019-06-08T05:16:04.315Z,8.43
2019-06-08T05:18:34.782Z,7.97
2019-06-08T05:21:05.530Z,7.73
2019-06-08T05:23:36.019Z,7.90
2019-06-08T05:26:06.623Z,7.43
2019-06-08T05:28:37.164Z,7.37
2019-06-08T05:31:07.658Z,8.00
2019-06-08T05:33:39.203Z,9.03
2019-06-08T05:36:09.723Z,7.60
2019-06-08T05:38:41.543Z,7.57
2019-06-08T05:41:12.015Z,7.73
2019-06-08T05:43:43.591Z,7.70
2019-06-08T05:46:14.096Z,8.37
2019-06-08T05:48:45.809Z,8.73
2019-06-08T05:51:16.325Z,8.10
2019-06-08T05:53:47.883Z,8.03
2019-06-08T05:56:18.403Z,7.97
2019-06-08T05:58:50.154Z,8.23
2019-06-08T06:01:20.976Z,7.50
2019-06-08T06:03:51.955Z,7.60
2019-06-08T06:06:22.562Z,7.77
2019-06-08T06:08:53.013Z,8.43
2019-06-08T06:11:23.510Z,8.00
2019-06-08T06:13:54.070Z,7.60
2019-06-08T06:16:24.576Z,6.80
2019-06-08T06:18:55.083Z,7.13
2019-06-08T06:21:25.617Z,7.40
2019-06-08T06:23:56.080Z,8.50
2019-06-08T06:26:26.760Z,6.97
2019-06-08T06:28:57.275Z,7.70
2019-06-08T06:31:27.769Z,6.23
2019-06-08T06:33:58.315Z,6.67
2019-06-08T06:36:28.752Z,6.13
2019-06-08T06:38:59.212Z,9.43
2019-06-08T06:41:29.724Z,6.10
2019-06-08T06:44:00.220Z,7.03
2019-06-08T06:46:30.677Z,6.97
2019-06-08T06:49:01.191Z,6.83
2019-06-08T06:51:33.877Z,8.63
2019-06-08T06:54:03.885Z,7.43
2019-06-08T06:56:34.491Z,6.93
2019-06-08T06:59:05.004Z,6.67
2019-06-08T07:01:35.614Z,6.33
2019-06-08T07:04:06.180Z,7.43
2019-06-08T07:06:36.698Z,6.73
2019-06-08T07:09:07.865Z,6.90
2019-06-08T07:11:38.404Z,6.63
2019-06-08T07:14:08.936Z,7.70
2019-06-08T07:16:39.421Z,6.47
2019-06-08T07:19:09.888Z,7.57
2019-06-08T07:21:42.096Z,7.93
2019-06-08T07:24:12.758Z,7.30
2019-06-08T07:26:43.262Z,6.83
2019-06-08T07:29:13.770Z,6.80
2019-06-08T07:31:44.298Z,6.30
2019-06-08T07:34:14.749Z,6.83
2019-06-08T07:36:45.224Z,6.67
2019-06-08T07:39:15.718Z,6.00
2019-06-08T07:41:47.425Z,6.60
2019-06-08T07:44:18.386Z,6.70
2019-06-08T07:46:49.347Z,6.80
2019-06-08T07:49:20.230Z,7.03
2019-06-08T07:52:02.481Z,7.00
2019-06-08T07:54:22.934Z,6.87
2019-06-08T07:56:53.401Z,6.60
2019-06-08T07:59:23.918Z,6.67
2019-06-08T08:01:56.071Z,6.20
2019-06-08T08:04:26.680Z,6.47
2019-06-08T08:06:58.679Z,6.43
2019-06-08T08:09:29.755Z,7.10
2019-06-08T08:12:00.384Z,7.80
2019-06-08T08:14:30.845Z,7.63
2019-06-08T08:17:01.367Z,6.70
2019-06-08T08:19:31.875Z,6.90
2019-06-08T08:22:18.702Z,6.13
2019-06-08T08:24:34.583Z,6.83
2019-06-08T08:27:05.172Z,7.20
2019-06-08T08:29:38.033Z,7.13
2019-06-08T08:32:09.900Z,7.90
2019-06-08T08:34:40.022Z,6.63
2019-06-08T08:37:10.496Z,6.40
2019-06-08T08:39:41.052Z,6.33
2019-06-08T08:42:11.546Z,6.50
2019-06-08T08:44:42.056Z,6.13
2019-06-08T08:47:12.509Z,7.87
2019-06-08T08:49:43.009Z,7.03
2019-06-08T08:52:13.475Z,6.50
2019-06-08T08:54:43.994Z,6.10
2019-06-08T08:57:14.524Z,6.20
2019-06-08T08:59:47.733Z,6.05
2019-06-08T09:02:21.131Z,6.12
2019-06-08T09:04:50.806Z,6.90
2019-06-08T09:07:21.553Z,5.60
2019-06-08T09:09:53.480Z,5.80
2019-06-08T09:12:24.008Z,6.12
2019-06-08T09:14:56.082Z,5.75
2019-06-08T09:17:28.015Z,6.47
2019-06-08T09:20:00.325Z,5.83
2019-06-08T09:22:31.261Z,5.70
2019-06-08T09:25:04.355Z,5.77
2019-06-08T09:27:34.122Z,6.92
2019-06-08T09:30:05.041Z,5.42
2019-06-08T09:32:38.020Z,5.90
2019-06-08T09:35:09.369Z,6.45
2019-06-08T09:37:40.037Z,6.08
2019-06-08T09:40:10.895Z,5.37
2019-06-08T09:42:41.392Z,5.97
2019-06-08T09:45:12.065Z,5.60
2019-06-08T09:47:42.549Z,5.25
2019-06-08T09:50:13.922Z,5.50
2019-06-08T09:52:44.414Z,5.08
2019-06-08T09:55:14.989Z,4.87
2019-06-08T09:57:45.523Z,5.50
2019-06-08T10:00:21.218Z,5.15
2019-06-08T10:02:48.340Z,4.60
2019-06-08T10:05:19.056Z,5.30
2019-06-08T10:07:49.529Z,4.67
2019-06-08T10:10:20.139Z,4.22
2019-06-08T10:12:50.642Z,5.12
2019-06-08T10:15:21.194Z,5.35
2019-06-08T10:17:51.682Z,5.40
2019-06-08T10:20:22.132Z,4.10
2019-06-08T10:22:52.630Z,4.03
2019-06-08T10:25:23.130Z,3.55
2019-06-08T10:27:55.081Z,3.75
2019-06-08T10:30:28.385Z,3.60
2019-06-08T10:33:00.505Z,3.20
2019-06-08T10:35:30.076Z,3.10
2019-06-08T10:38:04.928Z,3.52
2019-06-08T10:40:32.704Z,3.40
2019-06-08T10:43:04.485Z,3.40
2019-06-08T10:45:35.656Z,3.10
2019-06-08T10:48:06.477Z,3.40
2019-06-08T10:50:36.996Z,2.80
2019-06-08T10:53:10.539Z,3.08
2019-06-08T10:55:40.824Z,4.37
2019-06-08T10:58:11.499Z,3.80
2019-06-08T11:00:41.980Z,3.72
2019-06-08T11:03:12.574Z,3.80
2019-06-08T11:05:43.059Z,3.67
2019-06-08T11:08:14.736Z,6.70
2019-06-08T11:10:47.491Z,3.75
2019-06-08T11:13:18.843Z,3.72
2019-06-08T11:15:49.467Z,4.00
2019-06-08T11:18:19.895Z,4.42
2019-06-08T11:20:50.401Z,4.03
2019-06-08T11:23:20.874Z,4.03
2019-06-08T11:25:51.391Z,3.52
2019-06-08T11:28:21.839Z,3.90
2019-06-08T11:30:52.309Z,4.00
2019-06-08T11:33:22.798Z,4.22
2019-06-08T11:35:53.355Z,4.70
2019-06-08T11:38:23.841Z,3.95
2019-06-08T11:40:54.328Z,3.90
2019-06-08T11:43:24.800Z,5.25
2019-06-08T11:45:55.293Z,4.00
2019-06-08T11:48:28.391Z,3.90
2019-06-08T11:50:58.615Z,4.22
2019-06-08T11:53:29.208Z,4.12
2019-06-08T11:56:01.169Z,4.03
2019-06-08T11:58:32.611Z,3.87
2019-06-08T12:01:10.017Z,4.10
2019-06-08T12:03:38.732Z,4.00
2019-06-08T12:06:12.299Z,4.00
2019-06-08T12:08:41.633Z,4.90
2019-06-08T12:11:18.121Z,4.22
2019-06-08T12:13:44.328Z,4.15
2019-06-08T12:16:18.718Z,3.85
2019-06-08T12:18:49.275Z,3.75
2019-06-08T12:21:19.148Z,3.60
2019-06-08T12:23:49.612Z,3.85
2019-06-08T12:26:20.152Z,4.05
2019-06-08T12:28:50.615Z,4.40
2019-06-08T12:31:22.481Z,4.50
2019-06-08T12:33:53.342Z,3.98
2019-06-08T12:36:23.814Z,4.50
2019-06-08T12:38:54.314Z,4.15
2019-06-08T12:41:24.766Z,4.30
2019-06-08T12:43:55.275Z,4.35
2019-06-08T12:46:27.778Z,4.47
2019-06-08T12:48:58.414Z,4.53
2019-06-08T12:51:28.954Z,4.45
2019-06-08T12:54:00.325Z,3.98
2019-06-08T12:56:30.919Z,4.08
2019-06-08T12:59:01.624Z,3.50
2019-06-08T13:01:32.160Z,4.37
2019-06-08T13:04:02.623Z,4.20
2019-06-08T13:06:33.084Z,4.28
2019-06-08T13:09:04.068Z,3.75
2019-06-08T13:11:34.519Z,4.10
2019-06-08T13:14:05.100Z,4.15
2019-06-08T13:16:38.094Z,4.08
2019-06-08T13:19:09.233Z,4.47
2019-06-08T13:21:39.974Z,4.45
2019-06-08T13:24:11.369Z,4.15
2019-06-08T13:26:41.807Z,3.98
2019-06-08T13:29:13.695Z,4.00
2019-06-08T13:31:44.630Z,4.12
2019-06-08T13:34:16.644Z,4.08
2019-06-08T13:36:48.478Z,4.00
2019-06-08T13:39:21.171Z,4.12
2019-06-08T13:41:52.150Z,4.50
2019-06-08T13:44:22.732Z,3.90
2019-06-08T13:46:53.201Z,3.92
2019-06-08T13:49:27.302Z,4.33
2019-06-08T13:51:58.182Z,3.70
2019-06-08T13:54:31.218Z,3.77
2019-06-08T13:57:00.322Z,3.87
2019-06-08T13:59:31.085Z,3.90
2019-06-08T14:02:01.645Z,4.15
2019-06-08T14:04:32.233Z,4.00
2019-06-08T14:07:02.684Z,4.00
2019-06-08T14:09:33.376Z,5.45
2019-06-08T14:12:03.838Z,5.03
2019-06-08T14:14:34.360Z,4.15
2019-06-08T14:17:04.904Z,4.17
2019-06-08T14:19:35.406Z,4.58
2019-06-08T14:22:05.960Z,4.03
2019-06-08T14:24:37.768Z,4.05
2019-06-08T14:27:08.357Z,4.08
2019-06-08T14:29:38.819Z,4.60
2019-06-08T14:32:09.267Z,4.20
2019-06-08T14:34:39.796Z,4.62
2019-06-08T14:37:10.263Z,4.67
2019-06-08T14:39:40.819Z,4.25
2019-06-08T14:42:11.339Z,4.65
2019-06-08T14:44:41.805Z,4.17
2019-06-08T14:47:15.097Z,4.37
2019-06-08T14:49:48.739Z,4.65
2019-06-08T14:52:21.015Z,4.42
2019-06-08T14:54:51.442Z,4.50
2019-06-08T14:57:23.287Z,4.05
2019-06-08T14:59:56.292Z,4.87
2019-06-08T15:02:28.533Z,4.70
2019-06-08T15:04:58.389Z,4.25
2019-06-08T15:07:31.310Z,5.28
2019-06-08T15:10:01.255Z,4.62
2019-06-08T15:12:31.751Z,4.37
2019-06-08T15:15:02.233Z,4.78
2019-06-08T15:17:32.848Z,4.75
2019-06-08T15:20:03.383Z,4.60
2019-06-08T15:22:33.839Z,4.62
2019-06-08T15:25:04.689Z,4.92
2019-06-08T15:27:35.147Z,4.80
2019-06-08T15:30:06.248Z,4.90
2019-06-08T15:32:38.752Z,4.58
2019-06-08T15:35:09.135Z,4.35
2019-06-08T15:37:40.882Z,4.15
2019-06-08T15:40:11.848Z,4.28
2019-06-08T15:42:42.339Z,4.87
2019-06-08T15:45:13.084Z,4.65
2019-06-08T15:47:43.539Z,4.75
2019-06-08T15:50:14.134Z,4.47
2019-06-08T15:52:44.622Z,5.13
2019-06-08T15:55:15.178Z,4.37
2019-06-08T15:57:45.672Z,4.40
2019-06-08T16:00:18.284Z,5.22
2019-06-08T16:02:48.465Z,5.20
2019-06-08T16:05:18.967Z,4.55
2019-06-08T16:07:50.935Z,4.67
2019-06-08T16:10:21.410Z,4.40
2019-06-08T16:12:51.899Z,4.80
2019-06-08T16:15:22.388Z,4.83
2019-06-08T16:17:52.848Z,4.40
2019-06-08T16:20:23.297Z,4.83
2019-06-08T16:22:53.799Z,4.70
2019-06-08T16:25:25.465Z,5.62
2019-06-08T16:27:56.022Z,5.50
2019-06-08T16:30:27.110Z,5.55
2019-06-08T16:32:57.689Z,5.20
2019-06-08T16:35:29.626Z,4.83
2019-06-08T16:38:00.144Z,5.58
2019-06-08T16:40:31.940Z,4.57
2019-06-08T16:43:02.466Z,4.72
2019-06-08T16:45:33.186Z,5.00
2019-06-08T16:48:03.694Z,4.80
2019-06-08T16:50:34.379Z,4.60
2019-06-08T16:53:04.922Z,5.13
2019-06-08T16:55:36.160Z,5.37
2019-06-08T16:58:06.620Z,4.97
2019-06-08T17:00:40.441Z,4.97
2019-06-08T17:03:09.293Z,5.43
2019-06-08T17:05:39.915Z,5.40
2019-06-08T17:08:10.412Z,5.03
2019-06-08T17:10:41.150Z,5.40
2019-06-08T17:13:12.244Z,4.90
2019-06-08T17:15:42.866Z,5.37
2019-06-08T17:18:13.361Z,5.27
2019-06-08T17:20:43.978Z,5.07
2019-06-08T17:23:14.440Z,5.10
2019-06-08T17:25:45.084Z,5.07
2019-06-08T17:28:15.579Z,5.90
2019-06-08T17:30:46.163Z,5.53
2019-06-08T17:33:16.630Z,5.00
2019-06-08T17:35:47.123Z,6.17
2019-06-08T17:38:17.594Z,6.10
2019-06-08T17:40:48.127Z,5.93
2019-06-08T17:43:18.617Z,6.57
2019-06-08T17:45:49.071Z,6.00
2019-06-08T17:48:19.553Z,6.10
2019-06-08T17:50:50.124Z,5.80
2019-06-08T17:53:20.611Z,5.57
2019-06-08T17:55:51.186Z,5.47
2019-06-08T17:58:21.795Z,5.37
2019-06-08T18:00:52.249Z,4.77
2019-06-08T18:03:22.776Z,5.20
2019-06-08T18:05:53.262Z,5.17
2019-06-08T18:08:25.245Z,5.50
2019-06-08T18:10:57.606Z,5.57
2019-06-08T18:13:28.150Z,5.23
2019-06-08T18:15:58.642Z,5.60
2019-06-08T18:18:29.099Z,5.90
2019-06-08T18:20:59.613Z,5.77
2019-06-08T18:23:30.076Z,5.77
2019-06-08T18:26:00.566Z,6.07
2019-06-08T18:28:31.437Z,5.93
2019-06-08T18:31:01.946Z,6.77
2019-06-08T18:33:32.408Z,6.10
2019-06-08T18:36:03.214Z,5.90
2019-06-08T18:38:34.824Z,6.37
2019-06-08T18:41:08.092Z,5.97
2019-06-08T18:43:40.011Z,6.70
2019-06-08T18:46:10.082Z,6.20
2019-06-08T18:48:42.146Z,6.67
2019-06-08T18:51:17.351Z,7.13
2019-06-08T18:54:06.642Z,6.80
2019-06-08T18:56:19.444Z,7.20
2019-06-08T18:58:53.515Z,6.50
2019-06-08T19:01:23.686Z,6.50
2019-06-08T19:03:54.525Z,6.40
2019-06-08T19:06:27.447Z,6.70
2019-06-08T19:08:58.093Z,7.00
2019-06-08T19:11:28.743Z,7.07
2019-06-08T19:13:59.417Z,6.17
2019-06-08T19:16:29.921Z,5.97
2019-06-08T19:19:00.385Z,6.23
2019-06-08T19:21:30.874Z,6.40
2019-06-08T19:24:01.356Z,6.60
2019-06-08T19:26:31.864Z,6.23
2019-06-08T19:29:02.329Z,6.67
2019-06-08T19:31:32.839Z,6.33
2019-06-08T19:34:03.305Z,6.57
2019-06-08T19:36:33.904Z,5.57
2019-06-08T19:39:07.141Z,5.90
2019-06-08T19:41:38.149Z,5.73
2019-06-08T19:44:09.627Z,6.20
2019-06-08T19:46:40.368Z,5.70
2019-06-08T19:49:10.915Z,5.97
2019-06-08T19:51:41.809Z,5.83
2019-06-08T19:54:13.352Z,6.47
2019-06-08T19:56:43.881Z,7.37
2019-06-08T19:59:14.344Z,6.70
2019-06-08T20:01:48.443Z,7.03
2019-06-08T20:04:18.185Z,6.43
2019-06-08T20:06:50.697Z,6.90
2019-06-08T20:09:21.291Z,7.30
2019-06-08T20:11:55.510Z,6.97
2019-06-08T20:14:23.961Z,6.10
2019-06-08T20:16:54.473Z,6.47
2019-06-08T20:19:24.957Z,6.87
2019-06-08T20:21:55.473Z,6.40
2019-06-08T20:24:27.865Z,6.00
2019-06-08T20:26:58.183Z,6.60
2019-06-08T20:29:28.674Z,6.93
2019-06-08T20:31:59.138Z,7.00
2019-06-08T20:34:29.666Z,7.17
2019-06-08T20:37:02.007Z,7.20
2019-06-08T20:39:32.352Z,6.60
2019-06-08T20:42:02.810Z,7.13
2019-06-08T20:44:33.411Z,6.50
2019-06-08T20:47:03.925Z,7.00
2019-06-08T20:49:34.552Z,6.30
2019-06-08T20:52:05.134Z,7.10
2019-06-08T20:54:36.822Z,6.30
2019-06-08T20:57:07.757Z,6.67
2019-06-08T20:59:39.994Z,5.80
2019-06-08T21:02:10.607Z,6.20
2019-06-08T21:04:41.083Z,5.90
2019-06-08T21:07:11.538Z,6.47
2019-06-08T21:09:42.041Z,5.83
2019-06-08T21:12:12.543Z,5.80
2019-06-08T21:14:45.146Z,6.23
2019-06-08T21:17:15.342Z,5.87
2019-06-08T21:19:46.742Z,6.00
2019-06-08T21:22:18.323Z,6.47
2019-06-08T21:24:52.089Z,5.53
2019-06-08T21:27:21.032Z,6.70
2019-06-08T21:30:00.978Z,7.03
2019-06-08T21:32:23.682Z,6.30
2019-06-08T21:34:55.273Z,5.73
2019-06-08T21:37:28.065Z,6.23
2019-06-08T21:40:03.462Z,6.17
2019-06-08T21:42:30.540Z,5.53
2019-06-08T21:45:02.190Z,6.07
2019-06-08T21:47:33.253Z,6.40
2019-06-08T21:50:03.835Z,5.83
2019-06-08T21:52:34.345Z,6.23
2019-06-08T21:55:07.256Z,6.00
2019-06-08T21:57:37.523Z,6.00
2019-06-08T22:00:26.931Z,6.03
2019-06-08T22:02:41.382Z,6.27
2019-06-08T22:05:11.938Z,5.90
2019-06-08T22:07:42.432Z,5.63
2019-06-08T22:10:13.098Z,5.97
2019-06-08T22:12:43.593Z,6.43
2019-06-08T22:15:14.172Z,6.27
2019-06-08T22:17:44.731Z,6.50
2019-06-08T22:20:15.422Z,5.90
2019-06-08T22:22:47.319Z,6.03
2019-06-08T22:25:18.155Z,5.77
2019-06-08T22:27:49.074Z,5.90
2019-06-08T22:30:35.266Z,5.97
2019-06-08T22:32:52.784Z,6.30
2019-06-08T22:35:24.257Z,6.63
2019-06-08T22:37:55.112Z,6.83
2019-06-08T22:40:28.118Z,5.80
2019-06-08T22:43:00.752Z,6.40
2019-06-08T22:45:30.961Z,6.87
2019-06-08T22:48:02.538Z,5.80
2019-06-08T22:50:33.662Z,6.27
2019-06-08T22:53:04.134Z,6.30
2019-06-08T22:55:34.601Z,6.60
2019-06-08T22:58:07.531Z,6.00
2019-06-08T23:00:51.794Z,5.80
2019-06-08T23:03:09.430Z,6.50
2019-06-08T23:05:39.888Z,5.93
2019-06-08T23:08:10.388Z,6.10
2019-06-08T23:10:40.940Z,6.10
2019-06-08T23:13:11.437Z,6.17
2019-06-08T23:15:42.011Z,6.20
2019-06-08T23:18:12.512Z,5.90
2019-06-08T23:20:42.960Z,6.00
2019-06-08T23:23:13.467Z,5.63
2019-06-08T23:25:44.019Z,6.23
2019-06-08T23:28:14.510Z,5.77
2019-06-08T23:30:47.520Z,5.50
2019-06-08T23:33:18.914Z,5.47
2019-06-08T23:36:30.640Z,5.63
2019-06-08T23:38:21.510Z,5.43
2019-06-08T23:40:52.002Z,6.00
2019-06-08T23:43:22.499Z,5.13
2019-06-08T23:45:53.025Z,5.37
2019-06-08T23:48:23.486Z,5.20
2019-06-08T23:50:53.996Z,4.97
2019-06-08T23:53:24.461Z,5.20
2019-06-08T23:55:55.064Z,5.40
2019-06-08T23:58:27.726Z,5.43
